sensor_id;sensor_type;location;lat;lon;timestamp;temperature;humidity
13711;DHT22;6927;51.256;9.410;2022-10-16T00:01:21;14.20;99.90
13711;DHT22;6927;51.256;9.410;2022-10-16T00:03:47;14.20;99.90
13711;DHT22;6927;51.256;9.410;2022-10-16T00:06:14;14.20;99.90
13711;DHT22;6927;51.256;9.410;2022-10-16T00:08:40;14.20;99.90
13711;DHT22;6927;51.256;9.410;2022-10-16T00:11:09;14.20;99.90
13711;DHT22;6927;51.256;9.410;2022-10-16T00:13:37;14.30;99.90
13711;DHT22;6927;51.256;9.410;2022-10-16T00:16:03;14.30;99.90
13711;DHT22;6927;51.256;9.410;2022-10-16T00:18:29;14.30;99.90
13711;DHT22;6927;51.256;9.410;2022-10-16T00:20:55;14.30;99.90
13711;DHT22;6927;51.256;9.410;2022-10-16T00:23:21;14.30;99.90
13711;DHT22;6927;51.256;9.410;2022-10-16T00:25:58;14.30;99.90
13711;DHT22;6927;51.256;9.410;2022-10-16T00:28:24;14.20;99.90
13711;DHT22;6927;51.256;9.410;2022-10-16T00:30:49;14.20;99.90
13711;DHT22;6927;51.256;9.410;2022-10-16T00:33:15;14.20;99.90
13711;DHT22;6927;51.256;9.410;2022-10-16T00:35:41;14.20;99.90
13711;DHT22;6927;51.256;9.410;2022-10-16T00:38:06;14.20;99.90
13711;DHT22;6927;51.256;9.410;2022-10-16T00:40:32;14.20;99.90
13711;DHT22;6927;51.256;9.410;2022-10-16T00:42:58;14.10;99.90
13711;DHT22;6927;51.256;9.410;2022-10-16T00:45:24;14.10;99.90
13711;DHT22;6927;51.256;9.410;2022-10-16T00:47:51;14.10;99.90
13711;DHT22;6927;51.256;9.410;2022-10-16T00:50:29;14.10;99.90
13711;DHT22;6927;51.256;9.410;2022-10-16T00:52:56;14.10;99.90
13711;DHT22;6927;51.256;9.410;2022-10-16T00:55:22;14.10;99.90
13711;DHT22;6927;51.256;9.410;2022-10-16T00:57:49;14.10;99.90
13711;DHT22;6927;51.256;9.410;2022-10-16T01:00:20;14.10;99.90
13711;DHT22;6927;51.256;9.410;2022-10-16T01:02:55;14.10;99.90
13711;DHT22;6927;51.256;9.410;2022-10-16T01:05:38;14.10;99.90
13711;DHT22;6927;51.256;9.410;2022-10-16T01:08:18;14.10;99.90
13711;DHT22;6927;51.256;9.410;2022-10-16T01:11:08;14.10;99.90
13711;DHT22;6927;51.256;9.410;2022-10-16T01:13:40;14.00;99.90
13711;DHT22;6927;51.256;9.410;2022-10-16T01:16:28;14.00;99.90
13711;DHT22;6927;51.256;9.410;2022-10-16T01:19:12;14.00;99.90
13711;DHT22;6927;51.256;9.410;2022-10-16T01:21:42;14.00;99.90
13711;DHT22;6927;51.256;9.410;2022-10-16T01:24:23;14.00;99.90
13711;DHT22;6927;51.256;9.410;2022-10-16T01:32:40;14.00;99.90
13711;DHT22;6927;51.256;9.410;2022-10-16T01:37:52;14.00;99.90
13711;DHT22;6927;51.256;9.410;2022-10-16T01:40:20;14.00;99.90
13711;DHT22;6927;51.256;9.410;2022-10-16T01:42:56;14.00;99.90
13711;DHT22;6927;51.256;9.410;2022-10-16T01:45:24;14.00;99.90
13711;DHT22;6927;51.256;9.410;2022-10-16T01:47:51;14.00;99.90
13711;DHT22;6927;51.256;9.410;2022-10-16T01:50:19;14.00;99.90
13711;DHT22;6927;51.256;9.410;2022-10-16T01:52:48;14.00;99.90
13711;DHT22;6927;51.256;9.410;2022-10-16T01:55:22;14.00;99.90
13711;DHT22;6927;51.256;9.410;2022-10-16T01:57:49;14.00;99.90
13711;DHT22;6927;51.256;9.410;2022-10-16T02:00:17;14.00;99.90
13711;DHT22;6927;51.256;9.410;2022-10-16T02:02:47;14.00;99.90
13711;DHT22;6927;51.256;9.410;2022-10-16T02:07:42;14.00;99.90
13711;DHT22;6927;51.256;9.410;2022-10-16T02:10:08;14.00;99.90
13711;DHT22;6927;51.256;9.410;2022-10-16T02:12:36;14.00;99.90
13711;DHT22;6927;51.256;9.410;2022-10-16T02:15:05;13.90;99.90
13711;DHT22;6927;51.256;9.410;2022-10-16T02:17:30;13.90;99.90
13711;DHT22;6927;51.256;9.410;2022-10-16T02:19:57;13.90;99.90
13711;DHT22;6927;51.256;9.410;2022-10-16T02:22:27;13.90;99.90
13711;DHT22;6927;51.256;9.410;2022-10-16T02:30:32;13.80;99.90
13711;DHT22;6927;51.256;9.410;2022-10-16T02:33:00;13.80;99.90
13711;DHT22;6927;51.256;9.410;2022-10-16T02:35:27;13.80;99.90
13711;DHT22;6927;51.256;9.410;2022-10-16T02:37:54;13.70;99.90
13711;DHT22;6927;51.256;9.410;2022-10-16T02:40:21;13.70;99.90
13711;DHT22;6927;51.256;9.410;2022-10-16T02:42:50;13.60;99.90
13711;DHT22;6927;51.256;9.410;2022-10-16T02:45:18;13.60;99.90
13711;DHT22;6927;51.256;9.410;2022-10-16T02:47:43;13.50;99.90
13711;DHT22;6927;51.256;9.410;2022-10-16T02:50:09;13.50;99.90
13711;DHT22;6927;51.256;9.410;2022-10-16T02:52:34;13.50;99.90
13711;DHT22;6927;51.256;9.410;2022-10-16T02:55:00;13.40;99.90
13711;DHT22;6927;51.256;9.410;2022-10-16T02:57:26;13.40;99.90
13711;DHT22;6927;51.256;9.410;2022-10-16T02:59:52;13.30;99.90
13711;DHT22;6927;51.256;9.410;2022-10-16T03:02:17;13.30;99.90
13711;DHT22;6927;51.256;9.410;2022-10-16T03:04:43;13.30;99.90
13711;DHT22;6927;51.256;9.410;2022-10-16T03:07:09;13.30;99.90
13711;DHT22;6927;51.256;9.410;2022-10-16T03:09:34;13.30;99.90
13711;DHT22;6927;51.256;9.410;2022-10-16T03:12:00;13.30;99.90
13711;DHT22;6927;51.256;9.410;2022-10-16T03:14:26;13.30;99.90
13711;DHT22;6927;51.256;9.410;2022-10-16T03:16:51;13.30;99.90
13711;DHT22;6927;51.256;9.410;2022-10-16T03:19:17;13.30;99.90
13711;DHT22;6927;51.256;9.410;2022-10-16T03:21:44;13.40;99.90
13711;DHT22;6927;51.256;9.410;2022-10-16T03:24:09;13.40;99.90
13711;DHT22;6927;51.256;9.410;2022-10-16T03:26:35;13.40;99.90
13711;DHT22;6927;51.256;9.410;2022-10-16T03:29:01;13.40;99.90
13711;DHT22;6927;51.256;9.410;2022-10-16T03:31:31;13.30;99.90
13711;DHT22;6927;51.256;9.410;2022-10-16T03:33:57;13.30;99.90
13711;DHT22;6927;51.256;9.410;2022-10-16T03:36:22;13.20;99.90
13711;DHT22;6927;51.256;9.410;2022-10-16T03:38:48;13.20;99.90
13711;DHT22;6927;51.256;9.410;2022-10-16T03:41:13;13.10;99.90
13711;DHT22;6927;51.256;9.410;2022-10-16T03:43:39;13.10;99.90
13711;DHT22;6927;51.256;9.410;2022-10-16T03:46:05;13.10;99.90
13711;DHT22;6927;51.256;9.410;2022-10-16T03:48:30;13.00;99.90
13711;DHT22;6927;51.256;9.410;2022-10-16T03:50:57;13.00;99.90
13711;DHT22;6927;51.256;9.410;2022-10-16T03:53:23;13.00;99.90
13711;DHT22;6927;51.256;9.410;2022-10-16T03:55:49;12.90;99.90
13711;DHT22;6927;51.256;9.410;2022-10-16T03:58:14;12.80;99.90
13711;DHT22;6927;51.256;9.410;2022-10-16T04:00:41;12.80;99.90
13711;DHT22;6927;51.256;9.410;2022-10-16T04:03:07;12.70;99.90
13711;DHT22;6927;51.256;9.410;2022-10-16T04:05:33;12.70;99.90
13711;DHT22;6927;51.256;9.410;2022-10-16T04:07:59;12.70;99.90
13711;DHT22;6927;51.256;9.410;2022-10-16T04:10:24;12.60;99.90
13711;DHT22;6927;51.256;9.410;2022-10-16T04:12:50;12.60;99.90
13711;DHT22;6927;51.256;9.410;2022-10-16T04:15:15;12.50;99.90
13711;DHT22;6927;51.256;9.410;2022-10-16T04:17:41;12.50;99.90
13711;DHT22;6927;51.256;9.410;2022-10-16T04:20:07;12.50;99.90
13711;DHT22;6927;51.256;9.410;2022-10-16T04:22:36;12.50;99.90
13711;DHT22;6927;51.256;9.410;2022-10-16T04:25:02;12.50;99.90
13711;DHT22;6927;51.256;9.410;2022-10-16T04:27:27;12.50;99.90
13711;DHT22;6927;51.256;9.410;2022-10-16T04:29:53;12.50;99.90
13711;DHT22;6927;51.256;9.410;2022-10-16T04:32:19;12.60;99.90
13711;DHT22;6927;51.256;9.410;2022-10-16T04:34:45;12.60;99.90
13711;DHT22;6927;51.256;9.410;2022-10-16T04:37:10;12.60;99.90
13711;DHT22;6927;51.256;9.410;2022-10-16T04:39:36;12.70;99.90
13711;DHT22;6927;51.256;9.410;2022-10-16T04:42:02;12.70;99.90
13711;DHT22;6927;51.256;9.410;2022-10-16T04:44:27;12.70;99.90
13711;DHT22;6927;51.256;9.410;2022-10-16T04:46:53;12.70;99.90
13711;DHT22;6927;51.256;9.410;2022-10-16T04:49:18;12.80;99.90
13711;DHT22;6927;51.256;9.410;2022-10-16T04:51:44;12.70;99.90
13711;DHT22;6927;51.256;9.410;2022-10-16T04:54:10;12.80;99.90
13711;DHT22;6927;51.256;9.410;2022-10-16T04:56:35;12.90;99.90
13711;DHT22;6927;51.256;9.410;2022-10-16T04:59:08;13.00;99.90
13711;DHT22;6927;51.256;9.410;2022-10-16T05:01:34;13.10;99.90
13711;DHT22;6927;51.256;9.410;2022-10-16T05:03:59;13.10;99.90
13711;DHT22;6927;51.256;9.410;2022-10-16T05:06:25;13.20;99.90
13711;DHT22;6927;51.256;9.410;2022-10-16T05:08:51;13.20;99.90
13711;DHT22;6927;51.256;9.410;2022-10-16T05:11:16;13.20;99.90
13711;DHT22;6927;51.256;9.410;2022-10-16T05:13:42;13.30;99.90
13711;DHT22;6927;51.256;9.410;2022-10-16T05:16:07;13.30;99.90
13711;DHT22;6927;51.256;9.410;2022-10-16T05:18:33;13.20;99.90
13711;DHT22;6927;51.256;9.410;2022-10-16T05:20:58;13.30;99.90
13711;DHT22;6927;51.256;9.410;2022-10-16T05:23:24;13.30;99.90
13711;DHT22;6927;51.256;9.410;2022-10-16T05:25:57;13.30;99.90
13711;DHT22;6927;51.256;9.410;2022-10-16T05:28:24;13.30;99.90
13711;DHT22;6927;51.256;9.410;2022-10-16T05:30:50;13.30;99.90
13711;DHT22;6927;51.256;9.410;2022-10-16T05:33:16;13.30;99.90
13711;DHT22;6927;51.256;9.410;2022-10-16T05:35:41;13.40;99.90
13711;DHT22;6927;51.256;9.410;2022-10-16T05:38:07;13.40;99.90
13711;DHT22;6927;51.256;9.410;2022-10-16T05:40:33;13.40;99.90
13711;DHT22;6927;51.256;9.410;2022-10-16T05:42:58;13.50;99.90
13711;DHT22;6927;51.256;9.410;2022-10-16T05:45:24;13.50;99.90
13711;DHT22;6927;51.256;9.410;2022-10-16T05:47:49;13.50;99.90
13711;DHT22;6927;51.256;9.410;2022-10-16T05:50:15;13.60;99.90
13711;DHT22;6927;51.256;9.410;2022-10-16T05:52:41;13.60;99.90
13711;DHT22;6927;51.256;9.410;2022-10-16T05:55:06;13.70;99.90
13711;DHT22;6927;51.256;9.410;2022-10-16T05:57:32;13.70;99.90
13711;DHT22;6927;51.256;9.410;2022-10-16T05:59:58;13.70;99.90
13711;DHT22;6927;51.256;9.410;2022-10-16T06:02:23;13.70;99.90
13711;DHT22;6927;51.256;9.410;2022-10-16T06:04:49;13.70;99.90
13711;DHT22;6927;51.256;9.410;2022-10-16T06:07:16;13.70;99.90
13711;DHT22;6927;51.256;9.410;2022-10-16T06:09:42;13.70;99.90
13711;DHT22;6927;51.256;9.410;2022-10-16T06:12:07;13.80;99.90
13711;DHT22;6927;51.256;9.410;2022-10-16T06:14:33;13.70;99.90
13711;DHT22;6927;51.256;9.410;2022-10-16T06:16:58;13.80;99.90
13711;DHT22;6927;51.256;9.410;2022-10-16T06:19:24;13.70;99.90
13711;DHT22;6927;51.256;9.410;2022-10-16T06:21:49;13.80;99.90
13711;DHT22;6927;51.256;9.410;2022-10-16T06:24:15;13.80;99.90
13711;DHT22;6927;51.256;9.410;2022-10-16T06:26:41;13.80;99.90
13711;DHT22;6927;51.256;9.410;2022-10-16T06:29:06;13.90;99.90
13711;DHT22;6927;51.256;9.410;2022-10-16T06:31:32;13.90;99.90
13711;DHT22;6927;51.256;9.410;2022-10-16T06:33:59;13.90;99.90
13711;DHT22;6927;51.256;9.410;2022-10-16T06:36:25;14.00;99.90
13711;DHT22;6927;51.256;9.410;2022-10-16T06:38:51;14.00;99.90
13711;DHT22;6927;51.256;9.410;2022-10-16T06:41:20;14.00;99.90
13711;DHT22;6927;51.256;9.410;2022-10-16T06:43:46;14.10;99.90
13711;DHT22;6927;51.256;9.410;2022-10-16T06:46:14;14.10;99.90
13711;DHT22;6927;51.256;9.410;2022-10-16T06:48:40;14.10;99.90
13711;DHT22;6927;51.256;9.410;2022-10-16T06:53:37;14.20;99.90
13711;DHT22;6927;51.256;9.410;2022-10-16T06:56:23;14.20;99.90
13711;DHT22;6927;51.256;9.410;2022-10-16T06:58:49;14.30;99.90
13711;DHT22;6927;51.256;9.410;2022-10-16T07:01:16;14.30;99.90
13711;DHT22;6927;51.256;9.410;2022-10-16T07:03:43;14.30;99.90
13711;DHT22;6927;51.256;9.410;2022-10-16T07:06:11;14.30;99.90
13711;DHT22;6927;51.256;9.410;2022-10-16T07:08:38;14.30;99.90
13711;DHT22;6927;51.256;9.410;2022-10-16T07:11:06;14.30;99.90
13711;DHT22;6927;51.256;9.410;2022-10-16T07:13:34;14.20;99.90
13711;DHT22;6927;51.256;9.410;2022-10-16T07:16:14;14.20;99.90
13711;DHT22;6927;51.256;9.410;2022-10-16T07:18:40;14.20;99.90
13711;DHT22;6927;51.256;9.410;2022-10-16T07:21:10;14.20;99.90
13711;DHT22;6927;51.256;9.410;2022-10-16T07:23:36;14.20;99.90
13711;DHT22;6927;51.256;9.410;2022-10-16T07:26:03;14.20;99.90
13711;DHT22;6927;51.256;9.410;2022-10-16T07:28:28;14.20;99.90
13711;DHT22;6927;51.256;9.410;2022-10-16T07:30:54;14.30;99.90
13711;DHT22;6927;51.256;9.410;2022-10-16T07:33:20;14.40;99.90
13711;DHT22;6927;51.256;9.410;2022-10-16T07:35:50;14.40;99.90
13711;DHT22;6927;51.256;9.410;2022-10-16T07:38:16;14.50;99.90
13711;DHT22;6927;51.256;9.410;2022-10-16T07:40:42;14.50;99.90
13711;DHT22;6927;51.256;9.410;2022-10-16T07:43:07;14.60;99.90
13711;DHT22;6927;51.256;9.410;2022-10-16T07:45:33;14.70;99.90
13711;DHT22;6927;51.256;9.410;2022-10-16T07:47:59;14.70;99.90
13711;DHT22;6927;51.256;9.410;2022-10-16T07:50:24;14.70;99.90
13711;DHT22;6927;51.256;9.410;2022-10-16T07:52:50;14.60;99.90
13711;DHT22;6927;51.256;9.410;2022-10-16T07:55:15;14.60;99.90
13711;DHT22;6927;51.256;9.410;2022-10-16T07:57:41;14.70;99.90
13711;DHT22;6927;51.256;9.410;2022-10-16T08:00:07;14.70;99.90
13711;DHT22;6927;51.256;9.410;2022-10-16T08:02:39;14.70;99.90
13711;DHT22;6927;51.256;9.410;2022-10-16T08:05:05;14.60;99.90
13711;DHT22;6927;51.256;9.410;2022-10-16T08:07:31;14.70;99.90
13711;DHT22;6927;51.256;9.410;2022-10-16T08:09:56;14.70;99.90
13711;DHT22;6927;51.256;9.410;2022-10-16T08:12:24;14.80;99.90
13711;DHT22;6927;51.256;9.410;2022-10-16T08:14:49;14.80;99.90
13711;DHT22;6927;51.256;9.410;2022-10-16T08:17:15;14.90;99.90
13711;DHT22;6927;51.256;9.410;2022-10-16T08:19:47;14.90;99.90
13711;DHT22;6927;51.256;9.410;2022-10-16T08:22:13;15.10;99.90
13711;DHT22;6927;51.256;9.410;2022-10-16T08:24:40;15.20;99.90
13711;DHT22;6927;51.256;9.410;2022-10-16T08:27:06;15.20;99.90
13711;DHT22;6927;51.256;9.410;2022-10-16T08:29:32;15.30;99.90
13711;DHT22;6927;51.256;9.410;2022-10-16T08:31:58;15.40;99.90
13711;DHT22;6927;51.256;9.410;2022-10-16T08:34:23;15.40;99.90
13711;DHT22;6927;51.256;9.410;2022-10-16T08:36:49;15.30;99.90
13711;DHT22;6927;51.256;9.410;2022-10-16T08:39:15;15.40;99.90
13711;DHT22;6927;51.256;9.410;2022-10-16T08:42:05;15.50;99.90
13711;DHT22;6927;51.256;9.410;2022-10-16T08:47:49;15.70;99.90
13711;DHT22;6927;51.256;9.410;2022-10-16T08:50:24;15.70;99.90
13711;DHT22;6927;51.256;9.410;2022-10-16T08:52:51;15.90;99.90
13711;DHT22;6927;51.256;9.410;2022-10-16T08:55:30;16.10;99.90
13711;DHT22;6927;51.256;9.410;2022-10-16T08:57:58;16.30;99.90
13711;DHT22;6927;51.256;9.410;2022-10-16T09:00:24;16.40;99.90
13711;DHT22;6927;51.256;9.410;2022-10-16T09:11:08;16.60;99.90
13711;DHT22;6927;51.256;9.410;2022-10-16T09:16:22;16.80;99.90
13711;DHT22;6927;51.256;9.410;2022-10-16T09:18:58;16.90;99.90
13711;DHT22;6927;51.256;9.410;2022-10-16T09:21:31;17.60;99.90
13711;DHT22;6927;51.256;9.410;2022-10-16T09:24:06;19.00;99.90
13711;DHT22;6927;51.256;9.410;2022-10-16T09:26:35;19.80;99.90
13711;DHT22;6927;51.256;9.410;2022-10-16T09:29:00;19.90;99.90
13711;DHT22;6927;51.256;9.410;2022-10-16T09:31:26;19.90;99.90
13711;DHT22;6927;51.256;9.410;2022-10-16T09:33:59;19.60;99.90
13711;DHT22;6927;51.256;9.410;2022-10-16T09:36:27;19.30;99.90
13711;DHT22;6927;51.256;9.410;2022-10-16T09:39:08;18.90;99.90
13711;DHT22;6927;51.256;9.410;2022-10-16T09:41:42;18.70;99.90
13711;DHT22;6927;51.256;9.410;2022-10-16T09:44:29;18.70;99.90
13711;DHT22;6927;51.256;9.410;2022-10-16T09:47:25;18.90;99.90
13711;DHT22;6927;51.256;9.410;2022-10-16T09:50:05;19.00;99.90
13711;DHT22;6927;51.256;9.410;2022-10-16T09:52:39;19.10;99.90
13711;DHT22;6927;51.256;9.410;2022-10-16T09:55:17;19.10;99.90
13711;DHT22;6927;51.256;9.410;2022-10-16T09:57:53;19.20;99.90
13711;DHT22;6927;51.256;9.410;2022-10-16T10:00:21;19.20;99.90
13711;DHT22;6927;51.256;9.410;2022-10-16T10:02:47;19.10;99.90
13711;DHT22;6927;51.256;9.410;2022-10-16T10:05:27;19.20;99.90
13711;DHT22;6927;51.256;9.410;2022-10-16T10:07:58;19.20;99.90
13711;DHT22;6927;51.256;9.410;2022-10-16T10:10:27;19.10;99.90
13711;DHT22;6927;51.256;9.410;2022-10-16T10:12:54;19.10;99.90
13711;DHT22;6927;51.256;9.410;2022-10-16T10:15:21;19.20;99.90
13711;DHT22;6927;51.256;9.410;2022-10-16T10:17:50;19.30;99.90
13711;DHT22;6927;51.256;9.410;2022-10-16T10:20:26;19.30;99.90
13711;DHT22;6927;51.256;9.410;2022-10-16T10:22:53;19.20;99.90
13711;DHT22;6927;51.256;9.410;2022-10-16T10:25:19;19.20;99.90
13711;DHT22;6927;51.256;9.410;2022-10-16T10:33:46;19.10;99.90
13711;DHT22;6927;51.256;9.410;2022-10-16T10:36:38;19.20;99.90
13711;DHT22;6927;51.256;9.410;2022-10-16T10:39:27;19.00;99.90
13711;DHT22;6927;51.256;9.410;2022-10-16T10:47:27;19.00;99.90
13711;DHT22;6927;51.256;9.410;2022-10-16T10:50:18;19.60;99.90
13711;DHT22;6927;51.256;9.410;2022-10-16T10:52:58;20.50;99.90
13711;DHT22;6927;51.256;9.410;2022-10-16T10:55:49;21.40;99.90
13711;DHT22;6927;51.256;9.410;2022-10-16T11:01:26;22.20;99.90
13711;DHT22;6927;51.256;9.410;2022-10-16T11:06:51;21.80;99.90
13711;DHT22;6927;51.256;9.410;2022-10-16T11:09:36;21.40;99.90
13711;DHT22;6927;51.256;9.410;2022-10-16T11:12:26;21.00;99.90
13711;DHT22;6927;51.256;9.410;2022-10-16T11:15:11;20.60;99.90
13711;DHT22;6927;51.256;9.410;2022-10-16T11:17:49;20.30;99.90
13711;DHT22;6927;51.256;9.410;2022-10-16T11:23:05;20.10;99.90
13711;DHT22;6927;51.256;9.410;2022-10-16T11:25:33;20.10;99.90
13711;DHT22;6927;51.256;9.410;2022-10-16T11:30:51;20.10;99.90
13711;DHT22;6927;51.256;9.410;2022-10-16T11:33:26;20.40;99.90
13711;DHT22;6927;51.256;9.410;2022-10-16T11:44:41;22.40;99.90
13711;DHT22;6927;51.256;9.410;2022-10-16T11:49:53;24.00;99.90
13711;DHT22;6927;51.256;9.410;2022-10-16T11:52:41;24.00;99.90
13711;DHT22;6927;51.256;9.410;2022-10-16T11:55:20;24.20;99.90
13711;DHT22;6927;51.256;9.410;2022-10-16T11:57:50;24.30;99.90
13711;DHT22;6927;51.256;9.410;2022-10-16T12:00:21;24.20;99.90
13711;DHT22;6927;51.256;9.410;2022-10-16T12:02:57;24.20;99.90
13711;DHT22;6927;51.256;9.410;2022-10-16T12:08:16;24.00;99.90
13711;DHT22;6927;51.256;9.410;2022-10-16T12:10:44;24.00;99.90
13711;DHT22;6927;51.256;9.410;2022-10-16T12:13:38;23.80;99.90
13711;DHT22;6927;51.256;9.410;2022-10-16T12:16:24;23.50;99.90
13711;DHT22;6927;51.256;9.410;2022-10-16T12:19:07;23.40;99.90
13711;DHT22;6927;51.256;9.410;2022-10-16T12:21:34;23.70;99.90
13711;DHT22;6927;51.256;9.410;2022-10-16T12:24:02;24.00;99.90
13711;DHT22;6927;51.256;9.410;2022-10-16T12:26:36;24.10;99.90
13711;DHT22;6927;51.256;9.410;2022-10-16T12:31:44;23.60;99.90
13711;DHT22;6927;51.256;9.410;2022-10-16T12:34:24;23.30;99.90
13711;DHT22;6927;51.256;9.410;2022-10-16T12:36:51;23.00;99.90
13711;DHT22;6927;51.256;9.410;2022-10-16T12:39:27;22.60;99.90
13711;DHT22;6927;51.256;9.410;2022-10-16T12:44:54;22.00;99.90
13711;DHT22;6927;51.256;9.410;2022-10-16T12:47:50;21.70;99.90
13711;DHT22;6927;51.256;9.410;2022-10-16T12:50:32;21.70;99.90
13711;DHT22;6927;51.256;9.410;2022-10-16T12:52:58;21.60;99.90
13711;DHT22;6927;51.256;9.410;2022-10-16T12:55:25;21.50;99.90
13711;DHT22;6927;51.256;9.410;2022-10-16T12:58:16;21.40;99.90
13711;DHT22;6927;51.256;9.410;2022-10-16T13:01:47;21.30;99.90
13711;DHT22;6927;51.256;9.410;2022-10-16T13:04:11;21.00;99.90
13711;DHT22;6927;51.256;9.410;2022-10-16T13:07:17;20.80;99.90
13711;DHT22;6927;51.256;9.410;2022-10-16T13:12:15;20.90;99.90
13711;DHT22;6927;51.256;9.410;2022-10-16T13:20:02;20.80;99.90
13711;DHT22;6927;51.256;9.410;2022-10-16T13:25:17;20.00;99.90
13711;DHT22;6927;51.256;9.410;2022-10-16T13:27:53;20.00;99.90
13711;DHT22;6927;51.256;9.410;2022-10-16T13:30:31;19.90;99.90
13711;DHT22;6927;51.256;9.410;2022-10-16T13:35:55;20.40;99.90
13711;DHT22;6927;51.256;9.410;2022-10-16T13:38:25;20.60;99.90
13711;DHT22;6927;51.256;9.410;2022-10-16T13:40:59;20.70;99.90
13711;DHT22;6927;51.256;9.410;2022-10-16T13:43:41;20.80;99.90
13711;DHT22;6927;51.256;9.410;2022-10-16T13:46:14;21.40;99.90
13711;DHT22;6927;51.256;9.410;2022-10-16T13:48:40;22.40;99.90
13711;DHT22;6927;51.256;9.410;2022-10-16T13:51:17;23.50;99.90
13711;DHT22;6927;51.256;9.410;2022-10-16T13:53:44;24.20;99.90
13711;DHT22;6927;51.256;9.410;2022-10-16T13:56:13;24.50;99.90
13711;DHT22;6927;51.256;9.410;2022-10-16T13:58:38;25.80;99.90
13711;DHT22;6927;51.256;9.410;2022-10-16T14:01:14;26.30;99.90
13711;DHT22;6927;51.256;9.410;2022-10-16T14:03:41;26.50;99.90
13711;DHT22;6927;51.256;9.410;2022-10-16T14:06:12;27.00;99.90
13711;DHT22;6927;51.256;9.410;2022-10-16T14:08:43;26.50;99.90
13711;DHT22;6927;51.256;9.410;2022-10-16T14:11:10;26.60;99.90
13711;DHT22;6927;51.256;9.410;2022-10-16T14:13:43;25.90;99.90
13711;DHT22;6927;51.256;9.410;2022-10-16T14:16:15;24.80;99.90
13711;DHT22;6927;51.256;9.410;2022-10-16T14:18:55;24.00;99.90
13711;DHT22;6927;51.256;9.410;2022-10-16T14:21:22;23.30;99.90
13711;DHT22;6927;51.256;9.410;2022-10-16T14:23:48;22.60;99.90
13711;DHT22;6927;51.256;9.410;2022-10-16T14:26:15;21.80;99.90
13711;DHT22;6927;51.256;9.410;2022-10-16T14:28:42;21.40;99.90
13711;DHT22;6927;51.256;9.410;2022-10-16T14:33:50;20.30;99.90
13711;DHT22;6927;51.256;9.410;2022-10-16T14:36:16;19.90;99.90
13711;DHT22;6927;51.256;9.410;2022-10-16T14:39:13;19.60;99.90
13711;DHT22;6927;51.256;9.410;2022-10-16T14:41:46;19.40;99.90
13711;DHT22;6927;51.256;9.410;2022-10-16T14:44:12;19.20;99.90
13711;DHT22;6927;51.256;9.410;2022-10-16T14:46:41;19.10;99.90
13711;DHT22;6927;51.256;9.410;2022-10-16T14:51:36;19.10;99.90
13711;DHT22;6927;51.256;9.410;2022-10-16T14:54:02;19.00;99.90
13711;DHT22;6927;51.256;9.410;2022-10-16T14:56:51;19.10;99.90
13711;DHT22;6927;51.256;9.410;2022-10-16T14:59:35;19.10;99.90
13711;DHT22;6927;51.256;9.410;2022-10-16T15:02:27;19.20;99.90
13711;DHT22;6927;51.256;9.410;2022-10-16T15:04:53;19.20;99.90
13711;DHT22;6927;51.256;9.410;2022-10-16T15:07:18;19.20;99.90
13711;DHT22;6927;51.256;9.410;2022-10-16T15:09:44;19.10;99.90
13711;DHT22;6927;51.256;9.410;2022-10-16T15:12:09;19.00;99.90
13711;DHT22;6927;51.256;9.410;2022-10-16T15:14:35;19.10;99.90
13711;DHT22;6927;51.256;9.410;2022-10-16T15:17:00;19.00;99.90
13711;DHT22;6927;51.256;9.410;2022-10-16T15:19:26;19.00;99.90
13711;DHT22;6927;51.256;9.410;2022-10-16T15:21:52;18.90;99.90
13711;DHT22;6927;51.256;9.410;2022-10-16T15:24:18;18.80;99.90
13711;DHT22;6927;51.256;9.410;2022-10-16T15:26:43;18.70;99.90
13711;DHT22;6927;51.256;9.410;2022-10-16T15:29:11;18.70;99.90
13711;DHT22;6927;51.256;9.410;2022-10-16T15:31:37;18.60;99.90
13711;DHT22;6927;51.256;9.410;2022-10-16T15:34:03;18.50;99.90
13711;DHT22;6927;51.256;9.410;2022-10-16T15:36:33;18.50;99.90
13711;DHT22;6927;51.256;9.410;2022-10-16T15:39:06;18.40;99.90
13711;DHT22;6927;51.256;9.410;2022-10-16T15:41:36;18.40;99.90
13711;DHT22;6927;51.256;9.410;2022-10-16T15:44:01;18.40;99.90
13711;DHT22;6927;51.256;9.410;2022-10-16T15:46:27;18.40;99.90
13711;DHT22;6927;51.256;9.410;2022-10-16T15:48:56;18.30;99.90
13711;DHT22;6927;51.256;9.410;2022-10-16T15:51:22;18.30;99.90
13711;DHT22;6927;51.256;9.410;2022-10-16T15:53:48;18.30;99.90
13711;DHT22;6927;51.256;9.410;2022-10-16T15:56:14;18.20;99.90
13711;DHT22;6927;51.256;9.410;2022-10-16T15:58:40;18.10;99.90
13711;DHT22;6927;51.256;9.410;2022-10-16T16:01:06;18.00;99.90
13711;DHT22;6927;51.256;9.410;2022-10-16T16:03:33;17.90;99.90
13711;DHT22;6927;51.256;9.410;2022-10-16T16:06:04;17.80;99.90
13711;DHT22;6927;51.256;9.410;2022-10-16T16:08:30;17.70;99.90
13711;DHT22;6927;51.256;9.410;2022-10-16T16:11:06;17.60;99.90
13711;DHT22;6927;51.256;9.410;2022-10-16T16:13:32;17.50;99.90
13711;DHT22;6927;51.256;9.410;2022-10-16T16:15:57;17.30;99.90
13711;DHT22;6927;51.256;9.410;2022-10-16T16:18:23;17.20;99.90
13711;DHT22;6927;51.256;9.410;2022-10-16T16:20:50;17.10;99.90
13711;DHT22;6927;51.256;9.410;2022-10-16T16:23:15;16.90;99.90
13711;DHT22;6927;51.256;9.410;2022-10-16T16:25:41;16.80;99.90
13711;DHT22;6927;51.256;9.410;2022-10-16T16:28:07;16.70;99.90
13711;DHT22;6927;51.256;9.410;2022-10-16T16:30:35;16.60;99.90
13711;DHT22;6927;51.256;9.410;2022-10-16T16:33:01;16.50;99.90
13711;DHT22;6927;51.256;9.410;2022-10-16T16:35:26;16.40;99.90
13711;DHT22;6927;51.256;9.410;2022-10-16T16:37:52;16.40;99.90
13711;DHT22;6927;51.256;9.410;2022-10-16T16:40:18;16.30;99.90
13711;DHT22;6927;51.256;9.410;2022-10-16T16:42:43;16.20;99.90
13711;DHT22;6927;51.256;9.410;2022-10-16T16:45:09;16.10;99.90
13711;DHT22;6927;51.256;9.410;2022-10-16T16:47:34;16.10;99.90
13711;DHT22;6927;51.256;9.410;2022-10-16T16:50:00;16.00;99.90
13711;DHT22;6927;51.256;9.410;2022-10-16T16:52:30;15.90;99.90
13711;DHT22;6927;51.256;9.410;2022-10-16T16:54:55;15.80;99.90
13711;DHT22;6927;51.256;9.410;2022-10-16T16:57:21;15.80;99.90
13711;DHT22;6927;51.256;9.410;2022-10-16T16:59:46;15.70;99.90
13711;DHT22;6927;51.256;9.410;2022-10-16T17:02:12;15.60;99.90
13711;DHT22;6927;51.256;9.410;2022-10-16T17:04:38;15.60;99.90
13711;DHT22;6927;51.256;9.410;2022-10-16T17:07:03;15.50;99.90
13711;DHT22;6927;51.256;9.410;2022-10-16T17:09:32;15.40;99.90
13711;DHT22;6927;51.256;9.410;2022-10-16T17:11:57;15.40;99.90
13711;DHT22;6927;51.256;9.410;2022-10-16T17:14:23;15.30;99.90
13711;DHT22;6927;51.256;9.410;2022-10-16T17:16:48;15.20;99.90
13711;DHT22;6927;51.256;9.410;2022-10-16T17:19:17;15.10;99.90
13711;DHT22;6927;51.256;9.410;2022-10-16T17:21:42;15.10;99.90
13711;DHT22;6927;51.256;9.410;2022-10-16T17:24:08;15.00;99.90
13711;DHT22;6927;51.256;9.410;2022-10-16T17:26:34;14.90;99.90
13711;DHT22;6927;51.256;9.410;2022-10-16T17:29:03;14.90;99.90
13711;DHT22;6927;51.256;9.410;2022-10-16T17:31:31;14.80;99.90
13711;DHT22;6927;51.256;9.410;2022-10-16T17:33:58;14.80;99.90